sensor_id;sensor_type;location;lat;lon;timestamp;P1;durP1;ratioP1;P2;durP2;ratioP2
65092;SDS011;52025;50.288;2.794;2023-07-28T00:02:15;5.72;;;1.00;;
65092;SDS011;52025;50.288;2.794;2023-07-28T00:04:41;2.47;;;1.00;;
65092;SDS011;52025;50.288;2.794;2023-07-28T00:07:06;3.25;;;1.00;;
65092;SDS011;52025;50.288;2.794;2023-07-28T00:09:31;2.95;;;1.00;;
65092;SDS011;52025;50.288;2.794;2023-07-28T00:11:57;1.67;;;0.90;;
65092;SDS011;52025;50.288;2.794;2023-07-28T00:14:22;1.40;;;0.63;;
65092;SDS011;52025;50.288;2.794;2023-07-28T00:16:50;2.95;;;0.80;;
65092;SDS011;52025;50.288;2.794;2023-07-28T00:19:15;1.45;;;0.73;;
65092;SDS011;52025;50.288;2.794;2023-07-28T00:21:40;1.27;;;0.70;;
65092;SDS011;52025;50.288;2.794;2023-07-28T00:24:05;2.47;;;0.50;;
65092;SDS011;52025;50.288;2.794;2023-07-28T00:26:31;3.83;;;0.70;;
65092;SDS011;52025;50.288;2.794;2023-07-28T00:28:56;2.78;;;0.70;;
65092;SDS011;52025;50.288;2.794;2023-07-28T00:31:22;15.25;;;6.50;;
65092;SDS011;52025;50.288;2.794;2023-07-28T00:33:48;9.00;;;4.25;;
65092;SDS011;52025;50.288;2.794;2023-07-28T00:36:13;3.90;;;2.07;;
65092;SDS011;52025;50.288;2.794;2023-07-28T00:38:38;5.82;;;3.13;;
65092;SDS011;52025;50.288;2.794;2023-07-28T00:41:03;1.05;;;0.50;;
65092;SDS011;52025;50.288;2.794;2023-07-28T00:43:29;1.17;;;0.43;;
65092;SDS011;52025;50.288;2.794;2023-07-28T00:45:54;1.73;;;0.40;;
65092;SDS011;52025;50.288;2.794;2023-07-28T00:48:19;0.38;;;0.32;;
65092;SDS011;52025;50.288;2.794;2023-07-28T00:50:45;2.47;;;0.50;;
65092;SDS011;52025;50.288;2.794;2023-07-28T00:53:12;1.45;;;0.55;;
65092;SDS011;52025;50.288;2.794;2023-07-28T00:55:37;0.52;;;0.50;;
65092;SDS011;52025;50.288;2.794;2023-07-28T00:58:04;0.98;;;0.80;;
65092;SDS011;52025;50.288;2.794;2023-07-28T01:00:29;1.05;;;0.50;;
65092;SDS011;52025;50.288;2.794;2023-07-28T01:02:54;1.83;;;0.68;;
65092;SDS011;52025;50.288;2.794;2023-07-28T01:05:21;0.47;;;0.45;;
65092;SDS011;52025;50.288;2.794;2023-07-28T01:07:51;2.35;;;0.50;;
65092;SDS011;52025;50.288;2.794;2023-07-28T01:10:22;0.55;;;0.43;;
65092;SDS011;52025;50.288;2.794;2023-07-28T01:12:52;1.98;;;0.43;;
65092;SDS011;52025;50.288;2.794;2023-07-28T01:15:18;2.42;;;0.52;;
65092;SDS011;52025;50.288;2.794;2023-07-28T01:17:43;0.68;;;0.50;;
65092;SDS011;52025;50.288;2.794;2023-07-28T01:20:08;1.05;;;0.52;;
65092;SDS011;52025;50.288;2.794;2023-07-28T01:25:06;5.28;;;0.90;;
65092;SDS011;52025;50.288;2.794;2023-07-28T01:27:32;2.55;;;0.80;;
65092;SDS011;52025;50.288;2.794;2023-07-28T01:29:58;1.73;;;0.60;;
65092;SDS011;52025;50.288;2.794;2023-07-28T01:32:23;0.98;;;0.65;;
65092;SDS011;52025;50.288;2.794;2023-07-28T01:34:49;1.75;;;0.70;;
65092;SDS011;52025;50.288;2.794;2023-07-28T01:37:14;2.40;;;0.73;;
65092;SDS011;52025;50.288;2.794;2023-07-28T01:39:39;3.70;;;0.73;;
65092;SDS011;52025;50.288;2.794;2023-07-28T01:42:04;2.28;;;0.60;;
65092;SDS011;52025;50.288;2.794;2023-07-28T01:44:30;1.92;;;0.50;;
65092;SDS011;52025;50.288;2.794;2023-07-28T01:46:55;1.73;;;0.90;;
65092;SDS011;52025;50.288;2.794;2023-07-28T01:49:20;3.33;;;0.70;;
65092;SDS011;52025;50.288;2.794;2023-07-28T01:51:45;1.52;;;0.40;;
65092;SDS011;52025;50.288;2.794;2023-07-28T01:54:11;2.63;;;0.70;;
65092;SDS011;52025;50.288;2.794;2023-07-28T01:56:36;3.97;;;0.90;;
65092;SDS011;52025;50.288;2.794;2023-07-28T01:59:01;2.33;;;0.77;;
65092;SDS011;52025;50.288;2.794;2023-07-28T02:01:26;1.25;;;0.85;;
65092;SDS011;52025;50.288;2.794;2023-07-28T02:03:52;7.03;;;0.73;;
65092;SDS011;52025;50.288;2.794;2023-07-28T02:06:17;1.52;;;0.60;;
65092;SDS011;52025;50.288;2.794;2023-07-28T02:08:42;1.30;;;0.80;;
65092;SDS011;52025;50.288;2.794;2023-07-28T02:11:07;5.07;;;0.90;;
65092;SDS011;52025;50.288;2.794;2023-07-28T02:13:33;1.35;;;0.90;;
65092;SDS011;52025;50.288;2.794;2023-07-28T02:15:58;0.85;;;0.63;;
65092;SDS011;52025;50.288;2.794;2023-07-28T02:18:23;1.42;;;0.80;;
65092;SDS011;52025;50.288;2.794;2023-07-28T02:20:49;2.00;;;1.08;;
65092;SDS011;52025;50.288;2.794;2023-07-28T02:23:14;1.60;;;0.93;;
65092;SDS011;52025;50.288;2.794;2023-07-28T02:25:39;3.25;;;1.20;;
65092;SDS011;52025;50.288;2.794;2023-07-28T02:28:05;4.57;;;1.30;;
65092;SDS011;52025;50.288;2.794;2023-07-28T02:30:30;3.93;;;1.17;;
65092;SDS011;52025;50.288;2.794;2023-07-28T02:32:55;1.80;;;0.98;;
65092;SDS011;52025;50.288;2.794;2023-07-28T02:35:20;3.05;;;0.80;;
65092;SDS011;52025;50.288;2.794;2023-07-28T02:37:46;1.98;;;1.00;;
65092;SDS011;52025;50.288;2.794;2023-07-28T02:40:11;2.55;;;0.95;;
65092;SDS011;52025;50.288;2.794;2023-07-28T02:42:37;2.15;;;1.20;;
65092;SDS011;52025;50.288;2.794;2023-07-28T02:45:03;1.55;;;0.93;;
65092;SDS011;52025;50.288;2.794;2023-07-28T02:47:28;3.15;;;1.10;;
65092;SDS011;52025;50.288;2.794;2023-07-28T02:49:54;3.42;;;0.90;;
65092;SDS011;52025;50.288;2.794;2023-07-28T02:52:19;4.40;;;1.67;;
65092;SDS011;52025;50.288;2.794;2023-07-28T02:54:44;2.75;;;1.17;;
65092;SDS011;52025;50.288;2.794;2023-07-28T02:57:09;1.60;;;0.95;;
65092;SDS011;52025;50.288;2.794;2023-07-28T02:59:35;2.55;;;1.00;;
65092;SDS011;52025;50.288;2.794;2023-07-28T03:02:00;4.53;;;1.65;;
65092;SDS011;52025;50.288;2.794;2023-07-28T03:04:25;2.53;;;1.35;;
65092;SDS011;52025;50.288;2.794;2023-07-28T03:06:51;4.55;;;1.55;;
65092;SDS011;52025;50.288;2.794;2023-07-28T03:09:16;2.05;;;1.10;;
65092;SDS011;52025;50.288;2.794;2023-07-28T03:11:42;1.65;;;0.98;;
65092;SDS011;52025;50.288;2.794;2023-07-28T03:14:07;2.47;;;1.35;;
65092;SDS011;52025;50.288;2.794;2023-07-28T03:16:33;3.05;;;1.17;;
65092;SDS011;52025;50.288;2.794;2023-07-28T03:18:58;2.33;;;1.38;;
65092;SDS011;52025;50.288;2.794;2023-07-28T03:21:23;1.83;;;1.03;;
65092;SDS011;52025;50.288;2.794;2023-07-28T03:23:49;2.08;;;1.20;;
65092;SDS011;52025;50.288;2.794;2023-07-28T03:26:14;2.22;;;1.20;;
65092;SDS011;52025;50.288;2.794;2023-07-28T03:28:39;4.57;;;1.25;;
65092;SDS011;52025;50.288;2.794;2023-07-28T03:31:04;3.95;;;1.60;;
65092;SDS011;52025;50.288;2.794;2023-07-28T03:33:30;4.40;;;1.38;;
65092;SDS011;52025;50.288;2.794;2023-07-28T03:35:55;4.03;;;1.58;;
65092;SDS011;52025;50.288;2.794;2023-07-28T03:38:20;2.60;;;1.48;;
65092;SDS011;52025;50.288;2.794;2023-07-28T03:40:45;4.05;;;1.20;;
65092;SDS011;52025;50.288;2.794;2023-07-28T03:43:11;4.07;;;1.50;;
65092;SDS011;52025;50.288;2.794;2023-07-28T03:45:36;4.15;;;1.90;;
65092;SDS011;52025;50.288;2.794;2023-07-28T03:48:01;3.00;;;1.52;;
65092;SDS011;52025;50.288;2.794;2023-07-28T03:50:27;5.55;;;1.60;;
65092;SDS011;52025;50.288;2.794;2023-07-28T03:52:53;5.20;;;1.77;;
65092;SDS011;52025;50.288;2.794;2023-07-28T03:55:18;3.70;;;1.63;;
65092;SDS011;52025;50.288;2.794;2023-07-28T03:57:43;3.90;;;1.73;;
65092;SDS011;52025;50.288;2.794;2023-07-28T04:00:11;5.88;;;1.90;;
65092;SDS011;52025;50.288;2.794;2023-07-28T04:02:38;2.35;;;1.33;;
65092;SDS011;52025;50.288;2.794;2023-07-28T04:05:04;4.80;;;1.75;;
65092;SDS011;52025;50.288;2.794;2023-07-28T04:07:29;4.57;;;1.52;;
65092;SDS011;52025;50.288;2.794;2023-07-28T04:09:55;4.25;;;1.75;;
65092;SDS011;52025;50.288;2.794;2023-07-28T04:12:20;3.47;;;1.23;;
65092;SDS011;52025;50.288;2.794;2023-07-28T04:14:45;2.30;;;1.25;;
65092;SDS011;52025;50.288;2.794;2023-07-28T04:17:10;2.35;;;1.23;;
65092;SDS011;52025;50.288;2.794;2023-07-28T04:19:36;2.08;;;1.20;;
65092;SDS011;52025;50.288;2.794;2023-07-28T04:22:02;4.43;;;1.50;;
65092;SDS011;52025;50.288;2.794;2023-07-28T04:24:27;2.03;;;1.30;;
65092;SDS011;52025;50.288;2.794;2023-07-28T04:26:52;3.88;;;1.40;;
65092;SDS011;52025;50.288;2.794;2023-07-28T04:29:18;3.05;;;1.40;;
65092;SDS011;52025;50.288;2.794;2023-07-28T04:31:43;4.82;;;1.65;;
65092;SDS011;52025;50.288;2.794;2023-07-28T04:34:08;2.70;;;1.50;;
65092;SDS011;52025;50.288;2.794;2023-07-28T04:36:33;2.50;;;1.25;;
65092;SDS011;52025;50.288;2.794;2023-07-28T04:38:59;5.68;;;1.60;;
65092;SDS011;52025;50.288;2.794;2023-07-28T04:41:24;3.63;;;1.63;;
65092;SDS011;52025;50.288;2.794;2023-07-28T04:43:49;2.25;;;1.33;;
65092;SDS011;52025;50.288;2.794;2023-07-28T04:46:15;2.75;;;1.55;;
65092;SDS011;52025;50.288;2.794;2023-07-28T04:48:40;3.13;;;1.83;;
65092;SDS011;52025;50.288;2.794;2023-07-28T04:51:05;4.45;;;1.77;;
65092;SDS011;52025;50.288;2.794;2023-07-28T04:53:30;3.72;;;1.77;;
65092;SDS011;52025;50.288;2.794;2023-07-28T04:55:56;3.60;;;1.67;;
65092;SDS011;52025;50.288;2.794;2023-07-28T04:58:21;6.43;;;2.03;;
65092;SDS011;52025;50.288;2.794;2023-07-28T05:00:46;3.83;;;1.83;;
65092;SDS011;52025;50.288;2.794;2023-07-28T05:03:11;4.82;;;1.90;;
65092;SDS011;52025;50.288;2.794;2023-07-28T05:05:37;3.45;;;1.60;;
65092;SDS011;52025;50.288;2.794;2023-07-28T05:08:02;5.28;;;2.00;;
65092;SDS011;52025;50.288;2.794;2023-07-28T05:10:27;4.25;;;2.05;;
65092;SDS011;52025;50.288;2.794;2023-07-28T05:12:52;5.07;;;2.35;;
65092;SDS011;52025;50.288;2.794;2023-07-28T05:15:18;6.30;;;2.28;;
65092;SDS011;52025;50.288;2.794;2023-07-28T05:17:43;4.22;;;2.00;;
65092;SDS011;52025;50.288;2.794;2023-07-28T05:20:08;5.07;;;1.80;;
65092;SDS011;52025;50.288;2.794;2023-07-28T05:22:34;4.88;;;1.90;;
65092;SDS011;52025;50.288;2.794;2023-07-28T05:24:59;4.32;;;1.98;;
65092;SDS011;52025;50.288;2.794;2023-07-28T05:27:24;5.72;;;2.10;;
65092;SDS011;52025;50.288;2.794;2023-07-28T05:29:50;4.90;;;2.28;;
65092;SDS011;52025;50.288;2.794;2023-07-28T05:32:15;3.25;;;1.75;;
65092;SDS011;52025;50.288;2.794;2023-07-28T05:34:43;4.28;;;2.00;;
65092;SDS011;52025;50.288;2.794;2023-07-28T05:37:10;3.92;;;1.83;;
65092;SDS011;52025;50.288;2.794;2023-07-28T05:39:35;3.92;;;1.60;;
65092;SDS011;52025;50.288;2.794;2023-07-28T05:42:01;3.40;;;1.65;;
65092;SDS011;52025;50.288;2.794;2023-07-28T05:44:26;2.20;;;1.10;;
65092;SDS011;52025;50.288;2.794;2023-07-28T05:46:51;0.82;;;0.70;;
65092;SDS011;52025;50.288;2.794;2023-07-28T05:49:17;1.02;;;0.60;;
65092;SDS011;52025;50.288;2.794;2023-07-28T05:51:42;0.55;;;0.50;;
65092;SDS011;52025;50.288;2.794;2023-07-28T05:54:07;0.82;;;0.40;;
65092;SDS011;52025;50.288;2.794;2023-07-28T05:56:32;0.30;;;0.30;;
65092;SDS011;52025;50.288;2.794;2023-07-28T05:58:58;2.05;;;0.40;;
65092;SDS011;52025;50.288;2.794;2023-07-28T06:01:23;1.58;;;0.55;;
65092;SDS011;52025;50.288;2.794;2023-07-28T06:03:50;0.73;;;0.47;;
65092;SDS011;52025;50.288;2.794;2023-07-28T06:06:16;1.85;;;0.47;;
65092;SDS011;52025;50.288;2.794;2023-07-28T06:08:42;0.93;;;0.45;;
65092;SDS011;52025;50.288;2.794;2023-07-28T06:11:07;1.13;;;0.40;;
65092;SDS011;52025;50.288;2.794;2023-07-28T06:13:32;1.85;;;0.40;;
65092;SDS011;52025;50.288;2.794;2023-07-28T06:15:58;0.20;;;0.20;;
65092;SDS011;52025;50.288;2.794;2023-07-28T06:18:23;0.30;;;0.30;;
65092;SDS011;52025;50.288;2.794;2023-07-28T06:20:49;0.98;;;0.30;;
65092;SDS011;52025;50.288;2.794;2023-07-28T06:23:14;0.60;;;0.40;;
65092;SDS011;52025;50.288;2.794;2023-07-28T06:25:39;1.08;;;0.30;;
65092;SDS011;52025;50.288;2.794;2023-07-28T06:28:09;1.50;;;0.40;;
65092;SDS011;52025;50.288;2.794;2023-07-28T06:30:34;0.90;;;0.30;;
65092;SDS011;52025;50.288;2.794;2023-07-28T06:32:59;0.73;;;0.40;;
65092;SDS011;52025;50.288;2.794;2023-07-28T06:35:24;0.93;;;0.52;;
65092;SDS011;52025;50.288;2.794;2023-07-28T06:37:50;1.08;;;0.50;;
65092;SDS011;52025;50.288;2.794;2023-07-28T06:40:15;2.42;;;0.50;;
65092;SDS011;52025;50.288;2.794;2023-07-28T06:42:40;0.38;;;0.30;;
65092;SDS011;52025;50.288;2.794;2023-07-28T06:45:06;1.08;;;0.60;;
65092;SDS011;52025;50.288;2.794;2023-07-28T06:47:31;0.95;;;0.40;;
65092;SDS011;52025;50.288;2.794;2023-07-28T06:49:57;0.70;;;0.30;;
65092;SDS011;52025;50.288;2.794;2023-07-28T06:52:22;0.70;;;0.47;;
65092;SDS011;52025;50.288;2.794;2023-07-28T06:54:48;0.73;;;0.38;;
65092;SDS011;52025;50.288;2.794;2023-07-28T06:57:14;0.20;;;0.20;;
65092;SDS011;52025;50.288;2.794;2023-07-28T06:59:39;0.70;;;0.30;;
65092;SDS011;52025;50.288;2.794;2023-07-28T07:02:05;0.68;;;0.20;;
65092;SDS011;52025;50.288;2.794;2023-07-28T07:04:30;0.20;;;0.20;;
65092;SDS011;52025;50.288;2.794;2023-07-28T07:06:55;0.43;;;0.20;;
65092;SDS011;52025;50.288;2.794;2023-07-28T07:09:21;0.38;;;0.35;;
65092;SDS011;52025;50.288;2.794;2023-07-28T07:11:46;0.28;;;0.20;;
65092;SDS011;52025;50.288;2.794;2023-07-28T07:14:13;0.35;;;0.20;;
65092;SDS011;52025;50.288;2.794;2023-07-28T07:16:39;0.38;;;0.30;;
65092;SDS011;52025;50.288;2.794;2023-07-28T07:19:04;1.08;;;0.40;;
65092;SDS011;52025;50.288;2.794;2023-07-28T07:21:29;3.78;;;0.68;;
65092;SDS011;52025;50.288;2.794;2023-07-28T07:23:55;0.75;;;0.47;;
65092;SDS011;52025;50.288;2.794;2023-07-28T07:26:20;0.75;;;0.60;;
65092;SDS011;52025;50.288;2.794;2023-07-28T07:28:45;1.48;;;0.73;;
65092;SDS011;52025;50.288;2.794;2023-07-28T07:31:11;2.55;;;1.00;;
65092;SDS011;52025;50.288;2.794;2023-07-28T07:33:37;2.13;;;1.00;;
65092;SDS011;52025;50.288;2.794;2023-07-28T07:36:02;4.07;;;1.40;;
65092;SDS011;52025;50.288;2.794;2023-07-28T07:38:28;2.83;;;1.50;;
65092;SDS011;52025;50.288;2.794;2023-07-28T07:40:53;2.83;;;1.30;;
65092;SDS011;52025;50.288;2.794;2023-07-28T07:43:18;3.13;;;1.20;;
65092;SDS011;52025;50.288;2.794;2023-07-28T07:45:45;3.75;;;1.88;;
65092;SDS011;52025;50.288;2.794;2023-07-28T07:48:12;6.20;;;1.90;;
65092;SDS011;52025;50.288;2.794;2023-07-28T07:50:37;3.90;;;1.30;;
65092;SDS011;52025;50.288;2.794;2023-07-28T07:53:02;4.22;;;1.60;;
65092;SDS011;52025;50.288;2.794;2023-07-28T07:55:27;3.75;;;1.63;;
65092;SDS011;52025;50.288;2.794;2023-07-28T07:57:53;4.00;;;1.70;;
65092;SDS011;52025;50.288;2.794;2023-07-28T08:00:18;4.32;;;1.73;;
65092;SDS011;52025;50.288;2.794;2023-07-28T08:02:43;3.47;;;1.52;;
65092;SDS011;52025;50.288;2.794;2023-07-28T08:05:09;3.63;;;1.60;;
65092;SDS011;52025;50.288;2.794;2023-07-28T08:07:35;4.63;;;1.33;;
65092;SDS011;52025;50.288;2.794;2023-07-28T08:10:01;6.55;;;1.48;;
65092;SDS011;52025;50.288;2.794;2023-07-28T08:12:27;4.50;;;1.60;;
65092;SDS011;52025;50.288;2.794;2023-07-28T08:14:52;4.00;;;1.30;;
65092;SDS011;52025;50.288;2.794;2023-07-28T08:17:18;4.60;;;1.50;;
65092;SDS011;52025;50.288;2.794;2023-07-28T08:19:44;4.45;;;1.67;;
65092;SDS011;52025;50.288;2.794;2023-07-28T08:22:09;4.07;;;1.60;;
65092;SDS011;52025;50.288;2.794;2023-07-28T08:24:36;2.47;;;1.40;;
65092;SDS011;52025;50.288;2.794;2023-07-28T08:27:02;3.80;;;1.60;;
65092;SDS011;52025;50.288;2.794;2023-07-28T08:29:27;4.10;;;1.50;;
65092;SDS011;52025;50.288;2.794;2023-07-28T08:31:52;3.88;;;1.10;;
65092;SDS011;52025;50.288;2.794;2023-07-28T08:34:18;2.50;;;1.10;;
65092;SDS011;52025;50.288;2.794;2023-07-28T08:36:43;4.57;;;1.40;;
65092;SDS011;52025;50.288;2.794;2023-07-28T08:39:08;2.75;;;1.10;;
65092;SDS011;52025;50.288;2.794;2023-07-28T08:41:37;3.38;;;1.27;;
65092;SDS011;52025;50.288;2.794;2023-07-28T08:44:02;4.20;;;1.17;;
65092;SDS011;52025;50.288;2.794;2023-07-28T08:46:28;3.75;;;1.20;;
65092;SDS011;52025;50.288;2.794;2023-07-28T08:48:53;4.53;;;1.50;;
65092;SDS011;52025;50.288;2.794;2023-07-28T08:51:21;2.35;;;1.10;;
65092;SDS011;52025;50.288;2.794;2023-07-28T08:53:47;2.72;;;0.90;;
65092;SDS011;52025;50.288;2.794;2023-07-28T08:56:12;2.67;;;1.30;;
65092;SDS011;52025;50.288;2.794;2023-07-28T08:58:37;1.55;;;0.80;;
65092;SDS011;52025;50.288;2.794;2023-07-28T09:01:03;3.42;;;0.90;;
65092;SDS011;52025;50.288;2.794;2023-07-28T09:03:29;2.08;;;1.20;;
65092;SDS011;52025;50.288;2.794;2023-07-28T09:06:01;1.60;;;0.93;;
65092;SDS011;52025;50.288;2.794;2023-07-28T09:08:27;2.55;;;1.20;;
65092;SDS011;52025;50.288;2.794;2023-07-28T09:10:52;1.65;;;0.90;;
65092;SDS011;52025;50.288;2.794;2023-07-28T09:13:19;3.15;;;1.20;;
65092;SDS011;52025;50.288;2.794;2023-07-28T09:15:44;2.08;;;0.95;;
65092;SDS011;52025;50.288;2.794;2023-07-28T09:18:10;2.47;;;1.15;;
65092;SDS011;52025;50.288;2.794;2023-07-28T09:20:37;2.08;;;1.10;;
65092;SDS011;52025;50.288;2.794;2023-07-28T09:23:03;1.52;;;0.90;;
65092;SDS011;52025;50.288;2.794;2023-07-28T09:25:30;2.95;;;1.20;;
65092;SDS011;52025;50.288;2.794;2023-07-28T09:27:55;1.98;;;1.00;;
65092;SDS011;52025;50.288;2.794;2023-07-28T09:30:21;3.85;;;1.35;;
65092;SDS011;52025;50.288;2.794;2023-07-28T09:32:49;4.00;;;1.25;;
65092;SDS011;52025;50.288;2.794;2023-07-28T09:35:15;2.05;;;1.00;;
65092;SDS011;52025;50.288;2.794;2023-07-28T09:37:42;1.85;;;0.90;;
65092;SDS011;52025;50.288;2.794;2023-07-28T09:40:11;2.97;;;1.50;;
65092;SDS011;52025;50.288;2.794;2023-07-28T09:42:37;2.97;;;1.10;;
65092;SDS011;52025;50.288;2.794;2023-07-28T09:45:03;3.38;;;1.30;;
65092;SDS011;52025;50.288;2.794;2023-07-28T09:47:29;4.18;;;1.35;;
65092;SDS011;52025;50.288;2.794;2023-07-28T09:49:55;3.85;;;1.30;;
65092;SDS011;52025;50.288;2.794;2023-07-28T09:52:23;2.20;;;0.93;;
65092;SDS011;52025;50.288;2.794;2023-07-28T09:54:49;2.80;;;1.20;;
65092;SDS011;52025;50.288;2.794;2023-07-28T09:57:17;5.35;;;1.30;;
65092;SDS011;52025;50.288;2.794;2023-07-28T09:59:47;2.63;;;1.13;;
65092;SDS011;52025;50.288;2.794;2023-07-28T10:02:12;2.30;;;1.05;;
65092;SDS011;52025;50.288;2.794;2023-07-28T10:04:37;2.30;;;1.10;;
65092;SDS011;52025;50.288;2.794;2023-07-28T10:07:06;3.40;;;1.00;;
65092;SDS011;52025;50.288;2.794;2023-07-28T10:09:32;2.55;;;1.08;;
65092;SDS011;52025;50.288;2.794;2023-07-28T10:11:58;2.83;;;1.10;;
65092;SDS011;52025;50.288;2.794;2023-07-28T10:14:36;4.00;;;1.10;;
65092;SDS011;52025;50.288;2.794;2023-07-28T10:17:05;2.08;;;0.88;;
65092;SDS011;52025;50.288;2.794;2023-07-28T10:19:34;5.22;;;1.25;;
65092;SDS011;52025;50.288;2.794;2023-07-28T10:29:57;2.65;;;1.50;;
65092;SDS011;52025;50.288;2.794;2023-07-28T10:32:26;5.18;;;1.40;;
65092;SDS011;52025;50.288;2.794;2023-07-28T10:34:59;5.07;;;1.33;;
65092;SDS011;52025;50.288;2.794;2023-07-28T10:37:24;2.38;;;1.05;;
65092;SDS011;52025;50.288;2.794;2023-07-28T10:39:55;3.17;;;1.20;;
65092;SDS011;52025;50.288;2.794;2023-07-28T10:42:35;2.15;;;1.10;;
65092;SDS011;52025;50.288;2.794;2023-07-28T10:45:01;1.98;;;1.00;;
65092;SDS011;52025;50.288;2.794;2023-07-28T10:47:30;2.22;;;0.90;;
65092;SDS011;52025;50.288;2.794;2023-07-28T10:49:56;1.77;;;0.90;;
65092;SDS011;52025;50.288;2.794;2023-07-28T10:52:23;1.65;;;0.90;;
65092;SDS011;52025;50.288;2.794;2023-07-28T10:54:48;2.20;;;0.95;;
65092;SDS011;52025;50.288;2.794;2023-07-28T10:57:14;2.65;;;1.08;;
65092;SDS011;52025;50.288;2.794;2023-07-28T10:59:39;1.92;;;1.02;;
65092;SDS011;52025;50.288;2.794;2023-07-28T11:02:04;2.25;;;0.98;;
65092;SDS011;52025;50.288;2.794;2023-07-28T11:04:30;2.25;;;1.00;;
65092;SDS011;52025;50.288;2.794;2023-07-28T11:06:55;1.85;;;0.80;;
65092;SDS011;52025;50.288;2.794;2023-07-28T11:09:26;3.00;;;1.13;;
65092;SDS011;52025;50.288;2.794;2023-07-28T11:11:51;1.95;;;0.85;;
65092;SDS011;52025;50.288;2.794;2023-07-28T11:14:17;3.88;;;1.27;;
65092;SDS011;52025;50.288;2.794;2023-07-28T11:16:42;2.30;;;1.00;;
65092;SDS011;52025;50.288;2.794;2023-07-28T11:19:13;5.63;;;1.13;;
65092;SDS011;52025;50.288;2.794;2023-07-28T11:21:42;1.70;;;0.80;;
65092;SDS011;52025;50.288;2.794;2023-07-28T11:24:08;3.08;;;1.10;;
65092;SDS011;52025;50.288;2.794;2023-07-28T11:26:34;2.78;;;0.95;;
65092;SDS011;52025;50.288;2.794;2023-07-28T11:29:00;1.92;;;1.05;;
65092;SDS011;52025;50.288;2.794;2023-07-28T11:31:25;3.42;;;1.10;;
65092;SDS011;52025;50.288;2.794;2023-07-28T11:33:51;2.08;;;0.82;;
65092;SDS011;52025;50.288;2.794;2023-07-28T11:36:26;1.40;;;0.90;;
65092;SDS011;52025;50.288;2.794;2023-07-28T11:38:55;3.95;;;1.17;;
65092;SDS011;52025;50.288;2.794;2023-07-28T11:41:22;1.80;;;1.00;;
65092;SDS011;52025;50.288;2.794;2023-07-28T11:43:48;2.47;;;1.30;;
65092;SDS011;52025;50.288;2.794;2023-07-28T11:51:55;1.90;;;1.10;;
65092;SDS011;52025;50.288;2.794;2023-07-28T11:54:26;2.30;;;1.00;;
65092;SDS011;52025;50.288;2.794;2023-07-28T11:56:54;2.35;;;1.00;;
65092;SDS011;52025;50.288;2.794;2023-07-28T11:59:19;1.52;;;0.80;;
65092;SDS011;52025;50.288;2.794;2023-07-28T12:01:58;2.00;;;0.80;;
65092;SDS011;52025;50.288;2.794;2023-07-28T12:04:24;1.30;;;0.70;;
65092;SDS011;52025;50.288;2.794;2023-07-28T12:07:00;0.65;;;0.40;;
65092;SDS011;52025;50.288;2.794;2023-07-28T12:09:25;1.33;;;0.50;;
65092;SDS011;52025;50.288;2.794;2023-07-28T12:11:51;2.20;;;0.75;;
65092;SDS011;52025;50.288;2.794;2023-07-28T12:14:16;1.20;;;0.60;;
65092;SDS011;52025;50.288;2.794;2023-07-28T12:16:54;1.75;;;0.90;;
65092;SDS011;52025;50.288;2.794;2023-07-28T12:19:20;1.75;;;0.70;;
65092;SDS011;52025;50.288;2.794;2023-07-28T12:21:45;0.32;;;0.32;;
65092;SDS011;52025;50.288;2.794;2023-07-28T12:24:12;2.72;;;1.00;;
65092;SDS011;52025;50.288;2.794;2023-07-28T12:26:37;2.08;;;0.88;;
65092;SDS011;52025;50.288;2.794;2023-07-28T12:29:03;1.58;;;0.65;;
65092;SDS011;52025;50.288;2.794;2023-07-28T12:31:28;1.67;;;0.65;;
65092;SDS011;52025;50.288;2.794;2023-07-28T12:33:53;0.98;;;0.65;;
65092;SDS011;52025;50.288;2.794;2023-07-28T12:36:18;2.63;;;1.13;;
65092;SDS011;52025;50.288;2.794;2023-07-28T12:38:44;3.40;;;1.10;;
65092;SDS011;52025;50.288;2.794;2023-07-28T12:41:09;2.72;;;0.80;;
65092;SDS011;52025;50.288;2.794;2023-07-28T12:43:34;3.22;;;1.35;;
65092;SDS011;52025;50.288;2.794;2023-07-28T12:46:00;1.48;;;0.80;;
65092;SDS011;52025;50.288;2.794;2023-07-28T12:48:25;2.70;;;1.02;;
65092;SDS011;52025;50.288;2.794;2023-07-28T12:50:53;3.25;;;1.20;;
65092;SDS011;52025;50.288;2.794;2023-07-28T12:53:18;3.13;;;1.30;;
65092;SDS011;52025;50.288;2.794;2023-07-28T12:55:43;2.03;;;1.00;;
65092;SDS011;52025;50.288;2.794;2023-07-28T12:58:09;2.30;;;1.00;;
65092;SDS011;52025;50.288;2.794;2023-07-28T13:00:34;3.42;;;1.10;;
65092;SDS011;52025;50.288;2.794;2023-07-28T13:02:59;2.10;;;1.08;;
65092;SDS011;52025;50.288;2.794;2023-07-28T13:05:25;1.98;;;0.98;;
65092;SDS011;52025;50.288;2.794;2023-07-28T13:07:50;2.75;;;0.95;;
65092;SDS011;52025;50.288;2.794;2023-07-28T13:10:15;1.50;;;0.80;;
65092;SDS011;52025;50.288;2.794;2023-07-28T13:12:40;2.35;;;1.00;;
65092;SDS011;52025;50.288;2.794;2023-07-28T13:15:06;1.85;;;0.80;;
65092;SDS011;52025;50.288;2.794;2023-07-28T13:17:31;1.80;;;0.90;;
65092;SDS011;52025;50.288;2.794;2023-07-28T13:19:57;2.75;;;0.85;;
65092;SDS011;52025;50.288;2.794;2023-07-28T13:22:30;2.45;;;1.05;;
65092;SDS011;52025;50.288;2.794;2023-07-28T13:24:55;1.50;;;0.80;;
65092;SDS011;52025;50.288;2.794;2023-07-28T13:27:20;1.92;;;0.93;;
65092;SDS011;52025;50.288;2.794;2023-07-28T13:29:45;2.50;;;0.88;;
65092;SDS011;52025;50.288;2.794;2023-07-28T13:32:18;1.20;;;0.80;;
65092;SDS011;52025;50.288;2.794;2023-07-28T13:34:43;1.67;;;1.00;;
65092;SDS011;52025;50.288;2.794;2023-07-28T13:37:09;1.75;;;1.02;;
65092;SDS011;52025;50.288;2.794;2023-07-28T13:39:34;2.33;;;1.10;;
65092;SDS011;52025;50.288;2.794;2023-07-28T13:41:59;2.97;;;0.90;;
65092;SDS011;52025;50.288;2.794;2023-07-28T13:44:25;1.02;;;0.70;;
65092;SDS011;52025;50.288;2.794;2023-07-28T13:46:52;1.75;;;0.73;;
65092;SDS011;52025;50.288;2.794;2023-07-28T13:49:20;3.38;;;1.08;;
65092;SDS011;52025;50.288;2.794;2023-07-28T13:51:46;2.13;;;1.00;;
65092;SDS011;52025;50.288;2.794;2023-07-28T13:54:11;1.60;;;0.80;;
65092;SDS011;52025;50.288;2.794;2023-07-28T13:56:36;2.63;;;1.10;;
65092;SDS011;52025;50.288;2.794;2023-07-28T13:59:04;3.38;;;1.30;;
65092;SDS011;52025;50.288;2.794;2023-07-28T14:01:30;4.47;;;1.15;;
65092;SDS011;52025;50.288;2.794;2023-07-28T14:03:55;2.13;;;1.00;;
65092;SDS011;52025;50.288;2.794;2023-07-28T14:06:20;2.28;;;1.00;;
65092;SDS011;52025;50.288;2.794;2023-07-28T14:08:48;2.03;;;0.93;;
65092;SDS011;52025;50.288;2.794;2023-07-28T14:11:13;3.85;;;1.23;;
65092;SDS011;52025;50.288;2.794;2023-07-28T14:13:39;1.48;;;0.80;;
65092;SDS011;52025;50.288;2.794;2023-07-28T14:16:04;2.88;;;1.20;;
65092;SDS011;52025;50.288;2.794;2023-07-28T14:18:29;5.50;;;1.10;;
65092;SDS011;52025;50.288;2.794;2023-07-28T14:20:55;2.80;;;1.30;;
65092;SDS011;52025;50.288;2.794;2023-07-28T14:23:23;2.40;;;1.02;;
65092;SDS011;52025;50.288;2.794;2023-07-28T14:25:48;3.80;;;1.50;;
65092;SDS011;52025;50.288;2.794;2023-07-28T14:28:14;2.67;;;1.73;;
65092;SDS011;52025;50.288;2.794;2023-07-28T14:30:39;2.97;;;1.10;;
65092;SDS011;52025;50.288;2.794;2023-07-28T14:33:04;2.30;;;0.90;;
65092;SDS011;52025;50.288;2.794;2023-07-28T14:35:29;2.42;;;1.08;;
65092;SDS011;52025;50.288;2.794;2023-07-28T14:37:55;1.63;;;1.00;;
65092;SDS011;52025;50.288;2.794;2023-07-28T14:40:20;2.63;;;1.00;;
65092;SDS011;52025;50.288;2.794;2023-07-28T14:42:45;3.00;;;0.95;;
65092;SDS011;52025;50.288;2.794;2023-07-28T14:45:10;1.80;;;1.17;;
65092;SDS011;52025;50.288;2.794;2023-07-28T14:47:38;2.75;;;0.90;;
65092;SDS011;52025;50.288;2.794;2023-07-28T14:50:03;3.83;;;1.10;;
65092;SDS011;52025;50.288;2.794;2023-07-28T14:52:29;2.05;;;0.80;;
65092;SDS011;52025;50.288;2.794;2023-07-28T14:54:54;3.53;;;1.20;;
65092;SDS011;52025;50.288;2.794;2023-07-28T14:57:19;2.67;;;1.05;;